sensor_id;sensor_type;location;lat;lon;timestamp;P1;durP1;ratioP1;P2;durP2;ratioP2
41687;SDS011;27371;42.686;23.362;2023-03-03T00:01:21;5.32;;;3.78;;
41687;SDS011;27371;42.686;23.362;2023-03-03T00:03:50;4.25;;;3.10;;
41687;SDS011;27371;42.686;23.362;2023-03-03T00:06:17;5.10;;;3.58;;
41687;SDS011;27371;42.686;23.362;2023-03-03T00:08:44;5.47;;;3.83;;
41687;SDS011;27371;42.686;23.362;2023-03-03T00:11:09;6.60;;;3.88;;
41687;SDS011;27371;42.686;23.362;2023-03-03T00:13:39;6.60;;;4.50;;
41687;SDS011;27371;42.686;23.362;2023-03-03T00:16:10;5.63;;;4.30;;
41687;SDS011;27371;42.686;23.362;2023-03-03T00:18:40;6.93;;;4.45;;
41687;SDS011;27371;42.686;23.362;2023-03-03T00:21:19;4.35;;;3.90;;
41687;SDS011;27371;42.686;23.362;2023-03-03T00:23:50;5.47;;;4.45;;
41687;SDS011;27371;42.686;23.362;2023-03-03T00:26:36;5.97;;;4.72;;
41687;SDS011;27371;42.686;23.362;2023-03-03T00:29:18;5.55;;;4.68;;
41687;SDS011;27371;42.686;23.362;2023-03-03T00:34:50;6.32;;;4.72;;
41687;SDS011;27371;42.686;23.362;2023-03-03T00:37:25;6.53;;;4.93;;
41687;SDS011;27371;42.686;23.362;2023-03-03T00:39:52;6.35;;;5.00;;
41687;SDS011;27371;42.686;23.362;2023-03-03T00:42:18;7.45;;;5.35;;
41687;SDS011;27371;42.686;23.362;2023-03-03T00:44:48;5.90;;;4.80;;
41687;SDS011;27371;42.686;23.362;2023-03-03T00:49:59;5.95;;;4.90;;
41687;SDS011;27371;42.686;23.362;2023-03-03T00:53:33;6.97;;;5.20;;
41687;SDS011;27371;42.686;23.362;2023-03-03T00:55:44;7.10;;;5.32;;
41687;SDS011;27371;42.686;23.362;2023-03-03T00:58:11;6.10;;;5.03;;
41687;SDS011;27371;42.686;23.362;2023-03-03T01:03:53;7.10;;;5.00;;
41687;SDS011;27371;42.686;23.362;2023-03-03T01:06:19;7.80;;;5.65;;
41687;SDS011;27371;42.686;23.362;2023-03-03T01:08:44;7.72;;;5.85;;
41687;SDS011;27371;42.686;23.362;2023-03-03T01:11:11;7.97;;;5.70;;
41687;SDS011;27371;42.686;23.362;2023-03-03T01:13:41;6.88;;;5.60;;
41687;SDS011;27371;42.686;23.362;2023-03-03T01:16:08;7.28;;;5.75;;
41687;SDS011;27371;42.686;23.362;2023-03-03T01:18:34;8.57;;;5.75;;
41687;SDS011;27371;42.686;23.362;2023-03-03T01:21:00;7.05;;;5.35;;
41687;SDS011;27371;42.686;23.362;2023-03-03T01:23:26;7.10;;;5.05;;
41687;SDS011;27371;42.686;23.362;2023-03-03T01:25:52;7.22;;;5.82;;
41687;SDS011;27371;42.686;23.362;2023-03-03T01:28:17;7.15;;;5.35;;
41687;SDS011;27371;42.686;23.362;2023-03-03T01:30:43;7.80;;;5.43;;
41687;SDS011;27371;42.686;23.362;2023-03-03T01:33:09;8.63;;;6.25;;
41687;SDS011;27371;42.686;23.362;2023-03-03T01:35:34;7.00;;;5.28;;
41687;SDS011;27371;42.686;23.362;2023-03-03T01:38:00;7.55;;;5.35;;
41687;SDS011;27371;42.686;23.362;2023-03-03T01:40:27;7.22;;;5.18;;
41687;SDS011;27371;42.686;23.362;2023-03-03T01:42:54;7.47;;;5.53;;
41687;SDS011;27371;42.686;23.362;2023-03-03T01:45:25;7.60;;;5.45;;
41687;SDS011;27371;42.686;23.362;2023-03-03T01:50:35;6.10;;;4.70;;
41687;SDS011;27371;42.686;23.362;2023-03-03T01:53:23;6.20;;;4.28;;
41687;SDS011;27371;42.686;23.362;2023-03-03T01:55:55;4.90;;;3.92;;
41687;SDS011;27371;42.686;23.362;2023-03-03T01:58:31;6.88;;;4.75;;
41687;SDS011;27371;42.686;23.362;2023-03-03T02:01:03;6.07;;;4.60;;
41687;SDS011;27371;42.686;23.362;2023-03-03T02:03:33;5.28;;;3.97;;
41687;SDS011;27371;42.686;23.362;2023-03-03T02:06:06;6.82;;;4.30;;
41687;SDS011;27371;42.686;23.362;2023-03-03T02:08:44;6.68;;;4.28;;
41687;SDS011;27371;42.686;23.362;2023-03-03T02:11:17;4.93;;;3.90;;
41687;SDS011;27371;42.686;23.362;2023-03-03T02:13:45;4.25;;;3.15;;
41687;SDS011;27371;42.686;23.362;2023-03-03T02:16:10;4.35;;;3.33;;
41687;SDS011;27371;42.686;23.362;2023-03-03T02:18:35;4.68;;;3.80;;
41687;SDS011;27371;42.686;23.362;2023-03-03T02:23:34;4.30;;;2.90;;
41687;SDS011;27371;42.686;23.362;2023-03-03T02:26:11;3.63;;;2.63;;
41687;SDS011;27371;42.686;23.362;2023-03-03T02:28:39;4.57;;;3.08;;
41687;SDS011;27371;42.686;23.362;2023-03-03T02:31:07;4.57;;;3.35;;
41687;SDS011;27371;42.686;23.362;2023-03-03T02:33:37;4.72;;;3.63;;
41687;SDS011;27371;42.686;23.362;2023-03-03T02:36:03;4.13;;;3.58;;
41687;SDS011;27371;42.686;23.362;2023-03-03T02:44:03;4.50;;;3.80;;
41687;SDS011;27371;42.686;23.362;2023-03-03T02:46:36;5.25;;;3.97;;
41687;SDS011;27371;42.686;23.362;2023-03-03T02:49:06;5.07;;;3.85;;
41687;SDS011;27371;42.686;23.362;2023-03-03T02:51:33;5.43;;;4.18;;
41687;SDS011;27371;42.686;23.362;2023-03-03T02:53:59;5.78;;;4.45;;
41687;SDS011;27371;42.686;23.362;2023-03-03T02:56:26;6.40;;;4.43;;
41687;SDS011;27371;42.686;23.362;2023-03-03T02:58:51;5.63;;;4.40;;
41687;SDS011;27371;42.686;23.362;2023-03-03T03:01:18;6.90;;;4.80;;
41687;SDS011;27371;42.686;23.362;2023-03-03T03:03:43;6.57;;;5.10;;
41687;SDS011;27371;42.686;23.362;2023-03-03T03:06:09;8.90;;;5.28;;
41687;SDS011;27371;42.686;23.362;2023-03-03T03:08:35;7.60;;;5.60;;
41687;SDS011;27371;42.686;23.362;2023-03-03T03:11:00;9.07;;;6.38;;
41687;SDS011;27371;42.686;23.362;2023-03-03T03:13:26;7.45;;;5.88;;
41687;SDS011;27371;42.686;23.362;2023-03-03T03:15:52;12.15;;;5.30;;
41687;SDS011;27371;42.686;23.362;2023-03-03T03:18:18;7.93;;;5.57;;
41687;SDS011;27371;42.686;23.362;2023-03-03T03:20:43;7.93;;;5.53;;
41687;SDS011;27371;42.686;23.362;2023-03-03T03:23:09;7.28;;;5.90;;
41687;SDS011;27371;42.686;23.362;2023-03-03T03:25:35;9.85;;;6.03;;
41687;SDS011;27371;42.686;23.362;2023-03-03T03:28:09;9.68;;;6.70;;
41687;SDS011;27371;42.686;23.362;2023-03-03T03:30:36;8.38;;;6.30;;
41687;SDS011;27371;42.686;23.362;2023-03-03T03:35:31;8.20;;;5.95;;
41687;SDS011;27371;42.686;23.362;2023-03-03T03:37:58;8.43;;;6.05;;
41687;SDS011;27371;42.686;23.362;2023-03-03T03:40:23;9.23;;;6.93;;
41687;SDS011;27371;42.686;23.362;2023-03-03T03:42:50;9.63;;;6.72;;
41687;SDS011;27371;42.686;23.362;2023-03-03T03:45:17;9.23;;;6.43;;
41687;SDS011;27371;42.686;23.362;2023-03-03T03:47:42;10.27;;;6.95;;
41687;SDS011;27371;42.686;23.362;2023-03-03T03:50:08;11.00;;;7.93;;
41687;SDS011;27371;42.686;23.362;2023-03-03T03:52:35;11.18;;;7.53;;
41687;SDS011;27371;42.686;23.362;2023-03-03T03:55:00;11.13;;;7.30;;
41687;SDS011;27371;42.686;23.362;2023-03-03T03:57:26;12.02;;;8.18;;
41687;SDS011;27371;42.686;23.362;2023-03-03T03:59:51;13.20;;;8.77;;
41687;SDS011;27371;42.686;23.362;2023-03-03T04:02:17;12.77;;;9.25;;
41687;SDS011;27371;42.686;23.362;2023-03-03T04:04:43;10.50;;;8.57;;
41687;SDS011;27371;42.686;23.362;2023-03-03T04:07:08;15.40;;;9.65;;
41687;SDS011;27371;42.686;23.362;2023-03-03T04:09:34;12.85;;;9.90;;
41687;SDS011;27371;42.686;23.362;2023-03-03T04:11:59;12.80;;;10.05;;
41687;SDS011;27371;42.686;23.362;2023-03-03T04:14:25;16.17;;;10.25;;
41687;SDS011;27371;42.686;23.362;2023-03-03T04:16:50;17.50;;;10.82;;
41687;SDS011;27371;42.686;23.362;2023-03-03T04:19:16;13.88;;;10.32;;
41687;SDS011;27371;42.686;23.362;2023-03-03T04:21:41;16.10;;;10.32;;
41687;SDS011;27371;42.686;23.362;2023-03-03T04:24:07;16.52;;;10.90;;
41687;SDS011;27371;42.686;23.362;2023-03-03T04:26:32;13.88;;;10.35;;
41687;SDS011;27371;42.686;23.362;2023-03-03T04:28:58;16.88;;;11.57;;
41687;SDS011;27371;42.686;23.362;2023-03-03T04:31:24;13.23;;;10.40;;
41687;SDS011;27371;42.686;23.362;2023-03-03T04:33:50;15.00;;;10.15;;
41687;SDS011;27371;42.686;23.362;2023-03-03T04:36:16;17.98;;;11.27;;
41687;SDS011;27371;42.686;23.362;2023-03-03T04:38:42;15.75;;;11.15;;
41687;SDS011;27371;42.686;23.362;2023-03-03T04:41:07;15.95;;;10.57;;
41687;SDS011;27371;42.686;23.362;2023-03-03T04:43:33;15.63;;;10.45;;
41687;SDS011;27371;42.686;23.362;2023-03-03T04:45:58;15.80;;;10.93;;
41687;SDS011;27371;42.686;23.362;2023-03-03T04:48:25;14.45;;;10.35;;
41687;SDS011;27371;42.686;23.362;2023-03-03T04:50:50;17.17;;;10.68;;
41687;SDS011;27371;42.686;23.362;2023-03-03T04:53:16;14.80;;;10.80;;
41687;SDS011;27371;42.686;23.362;2023-03-03T04:55:41;15.90;;;10.80;;
41687;SDS011;27371;42.686;23.362;2023-03-03T04:58:07;15.40;;;11.13;;
41687;SDS011;27371;42.686;23.362;2023-03-03T05:00:34;16.50;;;11.65;;
41687;SDS011;27371;42.686;23.362;2023-03-03T05:03:00;23.38;;;13.50;;
41687;SDS011;27371;42.686;23.362;2023-03-03T05:05:25;21.65;;;13.80;;
41687;SDS011;27371;42.686;23.362;2023-03-03T05:07:51;19.30;;;13.05;;
41687;SDS011;27371;42.686;23.362;2023-03-03T05:10:16;19.00;;;13.82;;
41687;SDS011;27371;42.686;23.362;2023-03-03T05:12:42;18.73;;;14.05;;
41687;SDS011;27371;42.686;23.362;2023-03-03T05:15:08;18.48;;;13.63;;
41687;SDS011;27371;42.686;23.362;2023-03-03T05:17:34;19.52;;;13.63;;
41687;SDS011;27371;42.686;23.362;2023-03-03T05:20:00;18.20;;;12.50;;
41687;SDS011;27371;42.686;23.362;2023-03-03T05:22:25;22.42;;;14.30;;
41687;SDS011;27371;42.686;23.362;2023-03-03T05:24:51;18.63;;;12.82;;
41687;SDS011;27371;42.686;23.362;2023-03-03T05:27:17;17.10;;;12.02;;
41687;SDS011;27371;42.686;23.362;2023-03-03T05:29:43;16.45;;;11.75;;
41687;SDS011;27371;42.686;23.362;2023-03-03T05:32:09;16.65;;;13.02;;
41687;SDS011;27371;42.686;23.362;2023-03-03T05:34:35;19.83;;;12.68;;
41687;SDS011;27371;42.686;23.362;2023-03-03T05:37:00;20.50;;;12.55;;
41687;SDS011;27371;42.686;23.362;2023-03-03T05:39:27;18.10;;;12.00;;
41687;SDS011;27371;42.686;23.362;2023-03-03T05:41:53;17.48;;;12.25;;
41687;SDS011;27371;42.686;23.362;2023-03-03T05:44:19;18.10;;;12.82;;
41687;SDS011;27371;42.686;23.362;2023-03-03T05:46:45;15.50;;;11.52;;
41687;SDS011;27371;42.686;23.362;2023-03-03T05:49:10;17.40;;;12.02;;
41687;SDS011;27371;42.686;23.362;2023-03-03T05:51:36;19.40;;;12.23;;
41687;SDS011;27371;42.686;23.362;2023-03-03T05:54:01;18.17;;;11.20;;
41687;SDS011;27371;42.686;23.362;2023-03-03T05:56:27;14.43;;;10.90;;
41687;SDS011;27371;42.686;23.362;2023-03-03T05:58:53;14.63;;;10.07;;
41687;SDS011;27371;42.686;23.362;2023-03-03T06:01:18;15.02;;;10.10;;
41687;SDS011;27371;42.686;23.362;2023-03-03T06:03:44;14.57;;;9.43;;
41687;SDS011;27371;42.686;23.362;2023-03-03T06:06:09;13.02;;;9.18;;
41687;SDS011;27371;42.686;23.362;2023-03-03T06:08:36;13.95;;;9.70;;
41687;SDS011;27371;42.686;23.362;2023-03-03T06:11:02;13.75;;;9.13;;
41687;SDS011;27371;42.686;23.362;2023-03-03T06:13:27;12.90;;;9.68;;
41687;SDS011;27371;42.686;23.362;2023-03-03T06:15:54;12.55;;;9.18;;
41687;SDS011;27371;42.686;23.362;2023-03-03T06:18:19;13.27;;;10.40;;
41687;SDS011;27371;42.686;23.362;2023-03-03T06:20:49;13.88;;;10.15;;
41687;SDS011;27371;42.686;23.362;2023-03-03T06:23:15;14.77;;;10.90;;
41687;SDS011;27371;42.686;23.362;2023-03-03T06:25:41;16.45;;;10.13;;
41687;SDS011;27371;42.686;23.362;2023-03-03T06:28:06;15.40;;;11.05;;
41687;SDS011;27371;42.686;23.362;2023-03-03T06:30:32;15.15;;;10.25;;
41687;SDS011;27371;42.686;23.362;2023-03-03T06:32:57;12.38;;;8.82;;
41687;SDS011;27371;42.686;23.362;2023-03-03T06:35:23;14.15;;;9.73;;
41687;SDS011;27371;42.686;23.362;2023-03-03T06:37:48;11.63;;;8.63;;
41687;SDS011;27371;42.686;23.362;2023-03-03T06:40:15;13.60;;;9.35;;
41687;SDS011;27371;42.686;23.362;2023-03-03T06:42:40;13.60;;;8.70;;
41687;SDS011;27371;42.686;23.362;2023-03-03T06:45:06;12.80;;;8.98;;
41687;SDS011;27371;42.686;23.362;2023-03-03T06:47:32;14.52;;;10.55;;
41687;SDS011;27371;42.686;23.362;2023-03-03T06:49:58;14.20;;;10.23;;
41687;SDS011;27371;42.686;23.362;2023-03-03T06:52:24;13.55;;;9.60;;
41687;SDS011;27371;42.686;23.362;2023-03-03T06:54:54;14.75;;;9.63;;
41687;SDS011;27371;42.686;23.362;2023-03-03T06:57:25;13.90;;;9.35;;
41687;SDS011;27371;42.686;23.362;2023-03-03T06:59:53;13.63;;;10.00;;
41687;SDS011;27371;42.686;23.362;2023-03-03T07:02:21;14.57;;;10.15;;
41687;SDS011;27371;42.686;23.362;2023-03-03T07:04:47;13.32;;;9.98;;
41687;SDS011;27371;42.686;23.362;2023-03-03T07:09:42;13.98;;;10.15;;
41687;SDS011;27371;42.686;23.362;2023-03-03T07:12:10;12.25;;;9.52;;
41687;SDS011;27371;42.686;23.362;2023-03-03T07:14:43;13.20;;;10.32;;
41687;SDS011;27371;42.686;23.362;2023-03-03T07:17:17;12.25;;;9.63;;
41687;SDS011;27371;42.686;23.362;2023-03-03T07:19:44;13.45;;;9.45;;
41687;SDS011;27371;42.686;23.362;2023-03-03T07:22:14;12.48;;;8.50;;
41687;SDS011;27371;42.686;23.362;2023-03-03T07:24:46;12.07;;;8.73;;
41687;SDS011;27371;42.686;23.362;2023-03-03T07:27:20;10.77;;;8.40;;
41687;SDS011;27371;42.686;23.362;2023-03-03T07:29:49;13.98;;;9.25;;
41687;SDS011;27371;42.686;23.362;2023-03-03T07:32:26;12.38;;;9.32;;
41687;SDS011;27371;42.686;23.362;2023-03-03T07:35:01;13.27;;;9.35;;
41687;SDS011;27371;42.686;23.362;2023-03-03T07:37:48;12.13;;;10.35;;
41687;SDS011;27371;42.686;23.362;2023-03-03T07:42:55;14.57;;;10.35;;
41687;SDS011;27371;42.686;23.362;2023-03-03T07:45:26;11.20;;;8.60;;
41687;SDS011;27371;42.686;23.362;2023-03-03T07:51:03;10.48;;;8.57;;
41687;SDS011;27371;42.686;23.362;2023-03-03T07:53:35;10.48;;;7.90;;
41687;SDS011;27371;42.686;23.362;2023-03-03T07:56:02;14.20;;;8.65;;
41687;SDS011;27371;42.686;23.362;2023-03-03T07:58:40;13.00;;;8.70;;
41687;SDS011;27371;42.686;23.362;2023-03-03T08:01:23;13.52;;;9.10;;
41687;SDS011;27371;42.686;23.362;2023-03-03T08:03:56;12.90;;;9.27;;
41687;SDS011;27371;42.686;23.362;2023-03-03T08:11:34;14.65;;;10.77;;
41687;SDS011;27371;42.686;23.362;2023-03-03T08:14:04;11.70;;;9.00;;
41687;SDS011;27371;42.686;23.362;2023-03-03T08:16:37;14.93;;;10.05;;
41687;SDS011;27371;42.686;23.362;2023-03-03T08:19:03;14.43;;;9.60;;
41687;SDS011;27371;42.686;23.362;2023-03-03T08:21:30;13.40;;;9.77;;
41687;SDS011;27371;42.686;23.362;2023-03-03T08:23:57;16.25;;;10.75;;
41687;SDS011;27371;42.686;23.362;2023-03-03T08:26:23;17.83;;;12.77;;
41687;SDS011;27371;42.686;23.362;2023-03-03T08:28:49;14.40;;;10.30;;
41687;SDS011;27371;42.686;23.362;2023-03-03T08:31:15;11.48;;;8.75;;
41687;SDS011;27371;42.686;23.362;2023-03-03T08:33:41;13.32;;;9.20;;
41687;SDS011;27371;42.686;23.362;2023-03-03T08:36:07;15.75;;;10.52;;
41687;SDS011;27371;42.686;23.362;2023-03-03T08:38:33;14.27;;;10.45;;
41687;SDS011;27371;42.686;23.362;2023-03-03T08:40:59;16.25;;;10.95;;
41687;SDS011;27371;42.686;23.362;2023-03-03T08:43:24;16.25;;;10.93;;
41687;SDS011;27371;42.686;23.362;2023-03-03T08:45:51;14.38;;;10.60;;
41687;SDS011;27371;42.686;23.362;2023-03-03T08:48:19;14.40;;;9.85;;
41687;SDS011;27371;42.686;23.362;2023-03-03T08:50:44;14.25;;;9.20;;
41687;SDS011;27371;42.686;23.362;2023-03-03T08:53:11;14.80;;;9.48;;
41687;SDS011;27371;42.686;23.362;2023-03-03T08:55:37;15.40;;;9.20;;
41687;SDS011;27371;42.686;23.362;2023-03-03T08:58:03;11.98;;;8.88;;
41687;SDS011;27371;42.686;23.362;2023-03-03T09:00:29;14.77;;;9.52;;
41687;SDS011;27371;42.686;23.362;2023-03-03T09:02:55;12.60;;;8.38;;
41687;SDS011;27371;42.686;23.362;2023-03-03T09:05:20;11.75;;;8.07;;
41687;SDS011;27371;42.686;23.362;2023-03-03T09:07:47;11.00;;;7.90;;
41687;SDS011;27371;42.686;23.362;2023-03-03T09:10:15;9.68;;;6.90;;
41687;SDS011;27371;42.686;23.362;2023-03-03T09:12:44;9.57;;;6.35;;
41687;SDS011;27371;42.686;23.362;2023-03-03T09:15:22;8.82;;;5.90;;
41687;SDS011;27371;42.686;23.362;2023-03-03T09:17:50;9.30;;;6.50;;
41687;SDS011;27371;42.686;23.362;2023-03-03T09:26:44;8.93;;;6.05;;
41687;SDS011;27371;42.686;23.362;2023-03-03T09:31:42;9.00;;;5.30;;
41687;SDS011;27371;42.686;23.362;2023-03-03T09:34:38;9.60;;;6.20;;
41687;SDS011;27371;42.686;23.362;2023-03-03T09:39:55;10.00;;;6.63;;
41687;SDS011;27371;42.686;23.362;2023-03-03T09:48:30;11.00;;;7.03;;
41687;SDS011;27371;42.686;23.362;2023-03-03T09:50:51;10.77;;;7.47;;
41687;SDS011;27371;42.686;23.362;2023-03-03T09:58:42;9.63;;;6.40;;
41687;SDS011;27371;42.686;23.362;2023-03-03T10:15:59;12.93;;;8.57;;
41687;SDS011;27371;42.686;23.362;2023-03-03T10:17:53;9.25;;;6.90;;
41687;SDS011;27371;42.686;23.362;2023-03-03T10:32:03;11.45;;;8.05;;
41687;SDS011;27371;42.686;23.362;2023-03-03T10:34:52;10.18;;;7.38;;
41687;SDS011;27371;42.686;23.362;2023-03-03T10:37:21;25.58;;;13.65;;
41687;SDS011;27371;42.686;23.362;2023-03-03T10:54:25;11.63;;;7.80;;
41687;SDS011;27371;42.686;23.362;2023-03-03T10:57:16;9.38;;;7.45;;
41687;SDS011;27371;42.686;23.362;2023-03-03T10:59:57;10.13;;;6.85;;
41687;SDS011;27371;42.686;23.362;2023-03-03T11:07:48;10.25;;;7.75;;
41687;SDS011;27371;42.686;23.362;2023-03-03T11:10:23;10.77;;;7.80;;
41687;SDS011;27371;42.686;23.362;2023-03-03T11:21:12;11.20;;;7.18;;
41687;SDS011;27371;42.686;23.362;2023-03-03T11:39:45;19.30;;;10.63;;
41687;SDS011;27371;42.686;23.362;2023-03-03T11:44:59;16.20;;;11.38;;
41687;SDS011;27371;42.686;23.362;2023-03-03T11:47:29;17.17;;;11.95;;
41687;SDS011;27371;42.686;23.362;2023-03-03T11:50:37;18.50;;;10.75;;
41687;SDS011;27371;42.686;23.362;2023-03-03T11:56:37;15.07;;;10.05;;
41687;SDS011;27371;42.686;23.362;2023-03-03T12:12:50;14.90;;;11.80;;
41687;SDS011;27371;42.686;23.362;2023-03-03T12:15:37;14.80;;;12.10;;
41687;SDS011;27371;42.686;23.362;2023-03-03T12:18:23;16.42;;;12.32;;
41687;SDS011;27371;42.686;23.362;2023-03-03T12:29:05;24.52;;;15.20;;
41687;SDS011;27371;42.686;23.362;2023-03-03T12:31:54;30.33;;;18.50;;
41687;SDS011;27371;42.686;23.362;2023-03-03T12:34:40;19.75;;;12.95;;
41687;SDS011;27371;42.686;23.362;2023-03-03T12:39:49;15.60;;;11.50;;
41687;SDS011;27371;42.686;23.362;2023-03-03T12:53:24;14.65;;;11.73;;
41687;SDS011;27371;42.686;23.362;2023-03-03T12:56:25;13.83;;;10.57;;
41687;SDS011;27371;42.686;23.362;2023-03-03T12:59:03;15.65;;;8.90;;
41687;SDS011;27371;42.686;23.362;2023-03-03T13:17:49;10.52;;;7.03;;
41687;SDS011;27371;42.686;23.362;2023-03-03T13:20:49;10.48;;;7.95;;
41687;SDS011;27371;42.686;23.362;2023-03-03T13:31:38;10.18;;;7.38;;
41687;SDS011;27371;42.686;23.362;2023-03-03T13:34:24;8.93;;;7.65;;
41687;SDS011;27371;42.686;23.362;2023-03-03T13:36:58;9.68;;;7.40;;
41687;SDS011;27371;42.686;23.362;2023-03-03T13:42:28;9.68;;;6.80;;
41687;SDS011;27371;42.686;23.362;2023-03-03T13:45:15;10.18;;;6.95;;
41687;SDS011;27371;42.686;23.362;2023-03-03T13:50:44;11.23;;;7.63;;
41687;SDS011;27371;42.686;23.362;2023-03-03T13:56:12;6.80;;;5.60;;
41687;SDS011;27371;42.686;23.362;2023-03-03T14:04:01;13.50;;;10.20;;
41687;SDS011;27371;42.686;23.362;2023-03-03T14:06:33;19.35;;;15.55;;
41687;SDS011;27371;42.686;23.362;2023-03-03T14:12:27;9.45;;;8.13;;
41687;SDS011;27371;42.686;23.362;2023-03-03T14:14:36;12.52;;;7.25;;
41687;SDS011;27371;42.686;23.362;2023-03-03T14:20:03;9.40;;;7.32;;
41687;SDS011;27371;42.686;23.362;2023-03-03T14:22:56;13.07;;;8.18;;
41687;SDS011;27371;42.686;23.362;2023-03-03T14:25:25;10.48;;;7.40;;
41687;SDS011;27371;42.686;23.362;2023-03-03T14:28:03;8.27;;;6.95;;
41687;SDS011;27371;42.686;23.362;2023-03-03T14:30:38;9.85;;;6.80;;
41687;SDS011;27371;42.686;23.362;2023-03-03T14:40:32;8.30;;;6.72;;
41687;SDS011;27371;42.686;23.362;2023-03-03T14:43:00;12.27;;;7.18;;
41687;SDS011;27371;42.686;23.362;2023-03-03T14:45:33;10.70;;;7.78;;
41687;SDS011;27371;42.686;23.362;2023-03-03T14:48:24;9.63;;;7.40;;
41687;SDS011;27371;42.686;23.362;2023-03-03T14:50:56;10.25;;;8.18;;
41687;SDS011;27371;42.686;23.362;2023-03-03T14:53:35;10.18;;;7.90;;
41687;SDS011;27371;42.686;23.362;2023-03-03T14:56:19;9.68;;;7.82;;
41687;SDS011;27371;42.686;23.362;2023-03-03T14:58:50;10.45;;;7.82;;
41687;SDS011;27371;42.686;23.362;2023-03-03T15:01:34;7.00;;;5.82;;
41687;SDS011;27371;42.686;23.362;2023-03-03T15:14:48;8.48;;;6.07;;
41687;SDS011;27371;42.686;23.362;2023-03-03T15:19:59;7.88;;;5.65;;
41687;SDS011;27371;42.686;23.362;2023-03-03T15:22:47;10.20;;;6.72;;
41687;SDS011;27371;42.686;23.362;2023-03-03T15:39:24;9.73;;;7.60;;
41687;SDS011;27371;42.686;23.362;2023-03-03T15:42:00;15.20;;;8.90;;
41687;SDS011;27371;42.686;23.362;2023-03-03T16:03:39;14.95;;;9.68;;
41687;SDS011;27371;42.686;23.362;2023-03-03T16:06:20;12.73;;;9.07;;
41687;SDS011;27371;42.686;23.362;2023-03-03T16:17:08;14.45;;;9.65;;
41687;SDS011;27371;42.686;23.362;2023-03-03T16:19:42;12.70;;;7.93;;
41687;SDS011;27371;42.686;23.362;2023-03-03T16:22:23;10.38;;;7.78;;
41687;SDS011;27371;42.686;23.362;2023-03-03T16:33:35;10.38;;;7.72;;
41687;SDS011;27371;42.686;23.362;2023-03-03T16:38:52;12.27;;;8.53;;
41687;SDS011;27371;42.686;23.362;2023-03-03T16:41:28;9.25;;;7.38;;
41687;SDS011;27371;42.686;23.362;2023-03-03T16:44:10;10.88;;;7.93;;
41687;SDS011;27371;42.686;23.362;2023-03-03T16:46:48;8.93;;;6.72;;
41687;SDS011;27371;42.686;23.362;2023-03-03T16:54:34;9.38;;;6.60;;
41687;SDS011;27371;42.686;23.362;2023-03-03T17:00:22;7.32;;;6.03;;
41687;SDS011;27371;42.686;23.362;2023-03-03T17:25:22;9.40;;;6.80;;
41687;SDS011;27371;42.686;23.362;2023-03-03T17:27:52;12.52;;;6.88;;
41687;SDS011;27371;42.686;23.362;2023-03-03T17:33:16;7.47;;;5.50;;
41687;SDS011;27371;42.686;23.362;2023-03-03T17:35:54;8.95;;;5.30;;
41687;SDS011;27371;42.686;23.362;2023-03-03T17:43:56;7.50;;;5.63;;
41687;SDS011;27371;42.686;23.362;2023-03-03T17:46:43;6.25;;;4.72;;
41687;SDS011;27371;42.686;23.362;2023-03-03T18:25:56;13.05;;;9.10;;
41687;SDS011;27371;42.686;23.362;2023-03-03T18:28:42;12.65;;;9.48;;
41687;SDS011;27371;42.686;23.362;2023-03-03T18:31:14;13.15;;;8.80;;
41687;SDS011;27371;42.686;23.362;2023-03-03T18:33:55;12.23;;;9.35;;
41687;SDS011;27371;42.686;23.362;2023-03-03T18:37:01;12.77;;;8.27;;
41687;SDS011;27371;42.686;23.362;2023-03-03T18:48:04;14.70;;;8.38;;
41687;SDS011;27371;42.686;23.362;2023-03-03T18:50:43;11.98;;;7.80;;
41687;SDS011;27371;42.686;23.362;2023-03-03T18:55:54;8.85;;;6.78;;
41687;SDS011;27371;42.686;23.362;2023-03-03T19:04:02;16.20;;;7.47;;
41687;SDS011;27371;42.686;23.362;2023-03-03T19:09:02;9.70;;;6.95;;
41687;SDS011;27371;42.686;23.362;2023-03-03T19:11:39;8.50;;;6.25;;
41687;SDS011;27371;42.686;23.362;2023-03-03T19:14:18;9.90;;;6.72;;
41687;SDS011;27371;42.686;23.362;2023-03-03T19:16:52;9.40;;;6.68;;
41687;SDS011;27371;42.686;23.362;2023-03-03T19:19:19;8.65;;;6.07;;
41687;SDS011;27371;42.686;23.362;2023-03-03T19:21:49;10.63;;;6.55;;
41687;SDS011;27371;42.686;23.362;2023-03-03T19:24:35;8.27;;;5.47;;
41687;SDS011;27371;42.686;23.362;2023-03-03T19:27:05;8.18;;;6.03;;
41687;SDS011;27371;42.686;23.362;2023-03-03T19:29:41;9.73;;;6.45;;
41687;SDS011;27371;42.686;23.362;2023-03-03T19:35:16;10.10;;;6.65;;
41687;SDS011;27371;42.686;23.362;2023-03-03T19:40:36;13.20;;;8.75;;
41687;SDS011;27371;42.686;23.362;2023-03-03T19:46:21;14.07;;;9.35;;
41687;SDS011;27371;42.686;23.362;2023-03-03T19:57:10;10.23;;;7.97;;
41687;SDS011;27371;42.686;23.362;2023-03-03T19:59:56;12.25;;;8.00;;
41687;SDS011;27371;42.686;23.362;2023-03-03T20:02:36;9.85;;;7.18;;
41687;SDS011;27371;42.686;23.362;2023-03-03T20:05:18;9.00;;;6.15;;
41687;SDS011;27371;42.686;23.362;2023-03-03T20:16:40;7.72;;;6.05;;
41687;SDS011;27371;42.686;23.362;2023-03-03T20:38:46;9.32;;;5.90;;
41687;SDS011;27371;42.686;23.362;2023-03-03T20:41:44;8.20;;;5.70;;
41687;SDS011;27371;42.686;23.362;2023-03-03T20:52:18;10.45;;;6.18;;
41687;SDS011;27371;42.686;23.362;2023-03-03T20:58:04;8.52;;;5.20;;
41687;SDS011;27371;42.686;23.362;2023-03-03T21:01:11;7.55;;;5.30;;
41687;SDS011;27371;42.686;23.362;2023-03-03T21:03:34;56.75;;;40.47;;
41687;SDS011;27371;42.686;23.362;2023-03-03T21:06:06;32.95;;;22.85;;
41687;SDS011;27371;42.686;23.362;2023-03-03T21:08:55;8.40;;;6.80;;
41687;SDS011;27371;42.686;23.362;2023-03-03T21:11:22;6.80;;;5.18;;
41687;SDS011;27371;42.686;23.362;2023-03-03T21:13:51;6.95;;;4.70;;
41687;SDS011;27371;42.686;23.362;2023-03-03T21:19:03;6.47;;;4.80;;
41687;SDS011;27371;42.686;23.362;2023-03-03T21:21:35;8.77;;;5.72;;
41687;SDS011;27371;42.686;23.362;2023-03-03T21:24:06;7.53;;;5.53;;
41687;SDS011;27371;42.686;23.362;2023-03-03T21:26:47;10.13;;;6.10;;
41687;SDS011;27371;42.686;23.362;2023-03-03T21:31:53;7.88;;;6.13;;
41687;SDS011;27371;42.686;23.362;2023-03-03T21:34:42;8.65;;;6.68;;
41687;SDS011;27371;42.686;23.362;2023-03-03T21:39:39;8.52;;;6.00;;
41687;SDS011;27371;42.686;23.362;2023-03-03T21:42:09;8.63;;;6.68;;
41687;SDS011;27371;42.686;23.362;2023-03-03T21:47:04;7.20;;;6.30;;
41687;SDS011;27371;42.686;23.362;2023-03-03T21:49:31;11.77;;;6.00;;
41687;SDS011;27371;42.686;23.362;2023-03-03T21:51:57;8.98;;;6.18;;
41687;SDS011;27371;42.686;23.362;2023-03-03T21:54:23;9.45;;;6.85;;
41687;SDS011;27371;42.686;23.362;2023-03-03T21:56:49;8.13;;;6.32;;
41687;SDS011;27371;42.686;23.362;2023-03-03T21:59:17;9.18;;;7.05;;
41687;SDS011;27371;42.686;23.362;2023-03-03T22:01:43;10.20;;;7.55;;
41687;SDS011;27371;42.686;23.362;2023-03-03T22:04:09;10.55;;;7.45;;
41687;SDS011;27371;42.686;23.362;2023-03-03T22:06:34;9.85;;;7.75;;
41687;SDS011;27371;42.686;23.362;2023-03-03T22:09:01;8.98;;;7.10;;
41687;SDS011;27371;42.686;23.362;2023-03-03T22:11:27;10.38;;;7.47;;
41687;SDS011;27371;42.686;23.362;2023-03-03T22:13:53;10.02;;;7.13;;
41687;SDS011;27371;42.686;23.362;2023-03-03T22:16:18;10.45;;;7.13;;